sensor_id;sensor_type;location;lat;lon;timestamp;P1;durP1;ratioP1;P2;durP2;ratioP2
67063;SDS011;58476;48.072;11.970;2023-03-04T00:00:12;23.17;;;9.85;;
67063;SDS011;58476;48.072;11.970;2023-03-04T00:02:38;18.77;;;9.68;;
67063;SDS011;58476;48.072;11.970;2023-03-04T00:05:03;17.35;;;9.30;;
67063;SDS011;58476;48.072;11.970;2023-03-04T00:07:29;18.60;;;9.65;;
67063;SDS011;58476;48.072;11.970;2023-03-04T00:09:54;18.77;;;9.40;;
67063;SDS011;58476;48.072;11.970;2023-03-04T00:12:20;20.05;;;9.27;;
67063;SDS011;58476;48.072;11.970;2023-03-04T00:14:45;14.80;;;9.27;;
67063;SDS011;58476;48.072;11.970;2023-03-04T00:17:11;17.48;;;9.43;;
67063;SDS011;58476;48.072;11.970;2023-03-04T00:19:36;17.73;;;9.73;;
67063;SDS011;58476;48.072;11.970;2023-03-04T00:22:02;14.68;;;9.23;;
67063;SDS011;58476;48.072;11.970;2023-03-04T00:24:28;21.13;;;9.90;;
67063;SDS011;58476;48.072;11.970;2023-03-04T00:26:53;16.70;;;9.43;;
67063;SDS011;58476;48.072;11.970;2023-03-04T00:29:19;15.57;;;8.85;;
67063;SDS011;58476;48.072;11.970;2023-03-04T00:31:44;16.08;;;9.23;;
67063;SDS011;58476;48.072;11.970;2023-03-04T00:34:10;18.10;;;9.10;;
67063;SDS011;58476;48.072;11.970;2023-03-04T00:36:35;15.70;;;9.40;;
67063;SDS011;58476;48.072;11.970;2023-03-04T00:39:00;15.45;;;9.30;;
67063;SDS011;58476;48.072;11.970;2023-03-04T00:41:27;17.30;;;9.23;;
67063;SDS011;58476;48.072;11.970;2023-03-04T00:43:52;15.48;;;9.50;;
67063;SDS011;58476;48.072;11.970;2023-03-04T00:46:18;15.98;;;9.65;;
67063;SDS011;58476;48.072;11.970;2023-03-04T00:48:43;18.25;;;9.60;;
67063;SDS011;58476;48.072;11.970;2023-03-04T00:51:08;15.10;;;9.35;;
67063;SDS011;58476;48.072;11.970;2023-03-04T00:53:34;16.73;;;9.45;;
67063;SDS011;58476;48.072;11.970;2023-03-04T00:55:59;14.57;;;9.00;;
67063;SDS011;58476;48.072;11.970;2023-03-04T00:58:24;15.25;;;9.00;;
67063;SDS011;58476;48.072;11.970;2023-03-04T01:00:50;14.68;;;9.10;;
67063;SDS011;58476;48.072;11.970;2023-03-04T01:03:17;16.42;;;8.73;;
67063;SDS011;58476;48.072;11.970;2023-03-04T01:05:42;18.23;;;9.40;;
67063;SDS011;58476;48.072;11.970;2023-03-04T01:08:07;15.52;;;9.20;;
67063;SDS011;58476;48.072;11.970;2023-03-04T01:10:33;16.95;;;8.95;;
67063;SDS011;58476;48.072;11.970;2023-03-04T01:12:58;17.60;;;8.77;;
67063;SDS011;58476;48.072;11.970;2023-03-04T01:15:25;15.65;;;9.68;;
67063;SDS011;58476;48.072;11.970;2023-03-04T01:17:50;19.23;;;9.70;;
67063;SDS011;58476;48.072;11.970;2023-03-04T01:20:17;16.80;;;9.38;;
67063;SDS011;58476;48.072;11.970;2023-03-04T01:22:42;15.60;;;9.02;;
67063;SDS011;58476;48.072;11.970;2023-03-04T01:25:08;18.92;;;9.05;;
67063;SDS011;58476;48.072;11.970;2023-03-04T01:27:34;15.63;;;8.52;;
67063;SDS011;58476;48.072;11.970;2023-03-04T01:29:59;15.85;;;8.93;;
67063;SDS011;58476;48.072;11.970;2023-03-04T01:32:25;14.00;;;8.57;;
67063;SDS011;58476;48.072;11.970;2023-03-04T01:34:50;15.13;;;8.93;;
67063;SDS011;58476;48.072;11.970;2023-03-04T01:37:16;15.57;;;9.15;;
67063;SDS011;58476;48.072;11.970;2023-03-04T01:39:42;16.85;;;8.95;;
67063;SDS011;58476;48.072;11.970;2023-03-04T01:42:25;16.50;;;8.65;;
67063;SDS011;58476;48.072;11.970;2023-03-04T01:44:54;13.95;;;8.48;;
67063;SDS011;58476;48.072;11.970;2023-03-04T01:47:19;13.98;;;8.27;;
67063;SDS011;58476;48.072;11.970;2023-03-04T01:49:47;14.48;;;9.13;;
67063;SDS011;58476;48.072;11.970;2023-03-04T01:54:43;14.37;;;9.07;;
67063;SDS011;58476;48.072;11.970;2023-03-04T01:57:18;16.17;;;8.80;;
67063;SDS011;58476;48.072;11.970;2023-03-04T01:59:46;16.55;;;9.18;;
67063;SDS011;58476;48.072;11.970;2023-03-04T02:02:12;16.13;;;8.27;;
67063;SDS011;58476;48.072;11.970;2023-03-04T02:04:38;14.75;;;9.40;;
67063;SDS011;58476;48.072;11.970;2023-03-04T02:07:06;14.65;;;9.07;;
67063;SDS011;58476;48.072;11.970;2023-03-04T02:09:32;17.33;;;9.00;;
67063;SDS011;58476;48.072;11.970;2023-03-04T02:11:58;15.40;;;9.13;;
67063;SDS011;58476;48.072;11.970;2023-03-04T02:14:24;15.32;;;9.57;;
67063;SDS011;58476;48.072;11.970;2023-03-04T02:16:50;15.32;;;9.45;;
67063;SDS011;58476;48.072;11.970;2023-03-04T02:21:55;17.60;;;8.85;;
67063;SDS011;58476;48.072;11.970;2023-03-04T02:27:03;13.48;;;8.82;;
67063;SDS011;58476;48.072;11.970;2023-03-04T02:29:29;15.77;;;9.05;;
67063;SDS011;58476;48.072;11.970;2023-03-04T02:31:54;16.33;;;8.73;;
67063;SDS011;58476;48.072;11.970;2023-03-04T02:34:21;16.02;;;8.93;;
67063;SDS011;58476;48.072;11.970;2023-03-04T02:36:50;15.00;;;9.18;;
67063;SDS011;58476;48.072;11.970;2023-03-04T02:41:44;14.88;;;8.95;;
67063;SDS011;58476;48.072;11.970;2023-03-04T02:44:19;16.63;;;9.27;;
67063;SDS011;58476;48.072;11.970;2023-03-04T02:46:47;14.85;;;9.40;;
67063;SDS011;58476;48.072;11.970;2023-03-04T02:49:13;14.00;;;8.80;;
67063;SDS011;58476;48.072;11.970;2023-03-04T02:51:39;17.02;;;10.68;;
67063;SDS011;58476;48.072;11.970;2023-03-04T02:54:11;15.57;;;9.30;;
67063;SDS011;58476;48.072;11.970;2023-03-04T02:56:43;15.35;;;9.50;;
67063;SDS011;58476;48.072;11.970;2023-03-04T02:59:28;15.77;;;9.23;;
67063;SDS011;58476;48.072;11.970;2023-03-04T03:01:54;14.38;;;8.55;;
67063;SDS011;58476;48.072;11.970;2023-03-04T03:04:20;15.10;;;8.80;;
67063;SDS011;58476;48.072;11.970;2023-03-04T03:06:49;14.32;;;9.00;;
67063;SDS011;58476;48.072;11.970;2023-03-04T03:09:15;13.73;;;8.70;;
67063;SDS011;58476;48.072;11.970;2023-03-04T03:11:41;15.07;;;8.73;;
67063;SDS011;58476;48.072;11.970;2023-03-04T03:14:07;15.55;;;8.93;;
67063;SDS011;58476;48.072;11.970;2023-03-04T03:16:33;15.13;;;8.73;;
67063;SDS011;58476;48.072;11.970;2023-03-04T03:18:58;12.48;;;8.50;;
67063;SDS011;58476;48.072;11.970;2023-03-04T03:21:24;15.05;;;9.32;;
67063;SDS011;58476;48.072;11.970;2023-03-04T03:23:50;13.75;;;8.73;;
67063;SDS011;58476;48.072;11.970;2023-03-04T03:26:15;15.18;;;8.75;;
67063;SDS011;58476;48.072;11.970;2023-03-04T03:28:41;15.73;;;8.85;;
67063;SDS011;58476;48.072;11.970;2023-03-04T03:31:07;16.55;;;8.52;;
67063;SDS011;58476;48.072;11.970;2023-03-04T03:33:32;13.88;;;8.95;;
67063;SDS011;58476;48.072;11.970;2023-03-04T03:35:57;14.25;;;8.68;;
67063;SDS011;58476;48.072;11.970;2023-03-04T03:38:23;15.82;;;8.90;;
67063;SDS011;58476;48.072;11.970;2023-03-04T03:40:48;14.15;;;8.40;;
67063;SDS011;58476;48.072;11.970;2023-03-04T03:43:13;14.82;;;9.18;;
67063;SDS011;58476;48.072;11.970;2023-03-04T03:45:39;15.05;;;9.48;;
67063;SDS011;58476;48.072;11.970;2023-03-04T03:48:04;13.30;;;8.70;;
67063;SDS011;58476;48.072;11.970;2023-03-04T03:50:30;14.55;;;9.32;;
67063;SDS011;58476;48.072;11.970;2023-03-04T03:52:55;15.23;;;9.35;;
67063;SDS011;58476;48.072;11.970;2023-03-04T03:55:21;15.98;;;9.50;;
67063;SDS011;58476;48.072;11.970;2023-03-04T03:57:47;14.50;;;8.65;;
67063;SDS011;58476;48.072;11.970;2023-03-04T04:00:12;13.25;;;8.52;;
67063;SDS011;58476;48.072;11.970;2023-03-04T04:02:39;15.07;;;9.32;;
67063;SDS011;58476;48.072;11.970;2023-03-04T04:05:05;15.73;;;8.90;;
67063;SDS011;58476;48.072;11.970;2023-03-04T04:07:32;16.25;;;9.70;;
67063;SDS011;58476;48.072;11.970;2023-03-04T04:09:57;13.13;;;8.57;;
67063;SDS011;58476;48.072;11.970;2023-03-04T04:12:22;13.82;;;8.80;;
67063;SDS011;58476;48.072;11.970;2023-03-04T04:14:48;14.95;;;9.23;;
67063;SDS011;58476;48.072;11.970;2023-03-04T04:17:13;14.23;;;9.23;;
67063;SDS011;58476;48.072;11.970;2023-03-04T04:19:39;13.80;;;8.57;;
67063;SDS011;58476;48.072;11.970;2023-03-04T04:22:06;14.07;;;8.23;;
67063;SDS011;58476;48.072;11.970;2023-03-04T04:24:36;14.55;;;9.30;;
67063;SDS011;58476;48.072;11.970;2023-03-04T04:27:02;15.88;;;9.45;;
67063;SDS011;58476;48.072;11.970;2023-03-04T04:29:27;14.80;;;9.07;;
67063;SDS011;58476;48.072;11.970;2023-03-04T04:31:52;14.30;;;9.05;;
67063;SDS011;58476;48.072;11.970;2023-03-04T04:34:18;14.43;;;8.77;;
67063;SDS011;58476;48.072;11.970;2023-03-04T04:36:43;14.50;;;9.05;;
67063;SDS011;58476;48.072;11.970;2023-03-04T04:39:08;14.77;;;9.13;;
67063;SDS011;58476;48.072;11.970;2023-03-04T04:41:35;16.10;;;9.40;;
67063;SDS011;58476;48.072;11.970;2023-03-04T04:44:02;14.90;;;9.43;;
67063;SDS011;58476;48.072;11.970;2023-03-04T04:46:28;15.30;;;8.73;;
67063;SDS011;58476;48.072;11.970;2023-03-04T04:48:54;14.45;;;8.65;;
67063;SDS011;58476;48.072;11.970;2023-03-04T04:51:19;13.52;;;8.52;;
67063;SDS011;58476;48.072;11.970;2023-03-04T04:53:44;14.35;;;8.95;;
67063;SDS011;58476;48.072;11.970;2023-03-04T04:56:19;14.02;;;9.00;;
67063;SDS011;58476;48.072;11.970;2023-03-04T04:58:46;14.15;;;9.13;;
67063;SDS011;58476;48.072;11.970;2023-03-04T05:01:13;15.77;;;9.52;;
67063;SDS011;58476;48.072;11.970;2023-03-04T05:03:39;14.48;;;9.45;;
67063;SDS011;58476;48.072;11.970;2023-03-04T05:06:06;15.30;;;9.13;;
67063;SDS011;58476;48.072;11.970;2023-03-04T05:08:33;15.00;;;9.18;;
67063;SDS011;58476;48.072;11.970;2023-03-04T05:10:59;14.75;;;8.82;;
67063;SDS011;58476;48.072;11.970;2023-03-04T05:13:25;13.77;;;8.65;;
67063;SDS011;58476;48.072;11.970;2023-03-04T05:15:52;15.82;;;8.80;;
67063;SDS011;58476;48.072;11.970;2023-03-04T05:18:20;18.73;;;9.32;;
67063;SDS011;58476;48.072;11.970;2023-03-04T05:20:50;16.88;;;8.68;;
67063;SDS011;58476;48.072;11.970;2023-03-04T05:23:16;13.17;;;8.67;;
67063;SDS011;58476;48.072;11.970;2023-03-04T05:25:41;13.60;;;9.02;;
67063;SDS011;58476;48.072;11.970;2023-03-04T05:28:07;15.70;;;8.88;;
67063;SDS011;58476;48.072;11.970;2023-03-04T05:30:32;14.23;;;8.73;;
67063;SDS011;58476;48.072;11.970;2023-03-04T05:32:57;13.18;;;8.60;;
67063;SDS011;58476;48.072;11.970;2023-03-04T05:35:23;14.25;;;8.80;;
67063;SDS011;58476;48.072;11.970;2023-03-04T05:37:48;16.35;;;9.25;;
67063;SDS011;58476;48.072;11.970;2023-03-04T05:40:13;12.63;;;7.85;;
67063;SDS011;58476;48.072;11.970;2023-03-04T05:42:39;17.13;;;8.25;;
67063;SDS011;58476;48.072;11.970;2023-03-04T05:45:04;14.07;;;8.20;;
67063;SDS011;58476;48.072;11.970;2023-03-04T05:47:30;18.30;;;8.23;;
67063;SDS011;58476;48.072;11.970;2023-03-04T05:49:55;17.20;;;8.73;;
67063;SDS011;58476;48.072;11.970;2023-03-04T05:52:21;18.85;;;8.38;;
67063;SDS011;58476;48.072;11.970;2023-03-04T05:54:46;21.80;;;9.13;;
67063;SDS011;58476;48.072;11.970;2023-03-04T05:57:11;17.42;;;8.40;;
67063;SDS011;58476;48.072;11.970;2023-03-04T05:59:37;17.17;;;8.90;;
67063;SDS011;58476;48.072;11.970;2023-03-04T06:02:02;15.10;;;8.68;;
67063;SDS011;58476;48.072;11.970;2023-03-04T06:04:27;12.98;;;8.10;;
67063;SDS011;58476;48.072;11.970;2023-03-04T06:06:53;19.42;;;9.32;;
67063;SDS011;58476;48.072;11.970;2023-03-04T06:09:18;15.82;;;8.60;;
67063;SDS011;58476;48.072;11.970;2023-03-04T06:11:43;16.80;;;8.55;;
67063;SDS011;58476;48.072;11.970;2023-03-04T06:14:08;16.77;;;8.07;;
67063;SDS011;58476;48.072;11.970;2023-03-04T06:16:34;17.50;;;8.32;;
67063;SDS011;58476;48.072;11.970;2023-03-04T06:18:59;13.63;;;8.30;;
67063;SDS011;58476;48.072;11.970;2023-03-04T06:21:24;16.23;;;8.10;;
67063;SDS011;58476;48.072;11.970;2023-03-04T06:23:50;17.10;;;9.50;;
67063;SDS011;58476;48.072;11.970;2023-03-04T06:26:15;17.38;;;8.55;;
67063;SDS011;58476;48.072;11.970;2023-03-04T06:28:41;17.80;;;8.50;;
67063;SDS011;58476;48.072;11.970;2023-03-04T06:31:07;65.88;;;11.25;;
67063;SDS011;58476;48.072;11.970;2023-03-04T06:33:32;37.80;;;9.30;;
67063;SDS011;58476;48.072;11.970;2023-03-04T06:35:58;27.83;;;8.43;;
67063;SDS011;58476;48.072;11.970;2023-03-04T06:38:23;22.75;;;8.73;;
67063;SDS011;58476;48.072;11.970;2023-03-04T06:40:50;27.13;;;8.45;;
67063;SDS011;58476;48.072;11.970;2023-03-04T06:43:15;18.90;;;8.10;;
67063;SDS011;58476;48.072;11.970;2023-03-04T06:45:41;20.92;;;8.13;;
67063;SDS011;58476;48.072;11.970;2023-03-04T06:48:06;22.75;;;8.13;;
67063;SDS011;58476;48.072;11.970;2023-03-04T06:50:31;19.83;;;7.85;;
67063;SDS011;58476;48.072;11.970;2023-03-04T06:52:57;21.23;;;8.25;;
67063;SDS011;58476;48.072;11.970;2023-03-04T06:55:22;16.55;;;7.68;;
67063;SDS011;58476;48.072;11.970;2023-03-04T06:57:48;25.05;;;8.13;;
67063;SDS011;58476;48.072;11.970;2023-03-04T07:00:13;17.08;;;7.28;;
67063;SDS011;58476;48.072;11.970;2023-03-04T07:02:39;16.77;;;8.38;;
67063;SDS011;58476;48.072;11.970;2023-03-04T07:05:05;15.30;;;7.50;;
67063;SDS011;58476;48.072;11.970;2023-03-04T07:07:30;18.60;;;8.40;;
67063;SDS011;58476;48.072;11.970;2023-03-04T07:09:56;18.23;;;7.70;;
67063;SDS011;58476;48.072;11.970;2023-03-04T07:12:21;16.55;;;8.35;;
67063;SDS011;58476;48.072;11.970;2023-03-04T07:14:46;20.58;;;9.25;;
67063;SDS011;58476;48.072;11.970;2023-03-04T07:17:12;22.75;;;7.80;;
67063;SDS011;58476;48.072;11.970;2023-03-04T07:19:37;16.02;;;8.27;;
67063;SDS011;58476;48.072;11.970;2023-03-04T07:22:03;18.40;;;7.15;;
67063;SDS011;58476;48.072;11.970;2023-03-04T07:24:28;15.98;;;7.43;;
67063;SDS011;58476;48.072;11.970;2023-03-04T07:26:53;19.08;;;7.20;;
67063;SDS011;58476;48.072;11.970;2023-03-04T07:29:19;12.70;;;6.82;;
67063;SDS011;58476;48.072;11.970;2023-03-04T07:31:44;12.98;;;6.88;;
67063;SDS011;58476;48.072;11.970;2023-03-04T07:34:11;14.57;;;7.25;;
67063;SDS011;58476;48.072;11.970;2023-03-04T07:36:37;16.00;;;7.25;;
67063;SDS011;58476;48.072;11.970;2023-03-04T07:39:03;16.88;;;7.55;;
67063;SDS011;58476;48.072;11.970;2023-03-04T07:41:29;17.85;;;7.13;;
67063;SDS011;58476;48.072;11.970;2023-03-04T07:43:55;16.40;;;6.68;;
67063;SDS011;58476;48.072;11.970;2023-03-04T07:46:21;17.67;;;6.85;;
67063;SDS011;58476;48.072;11.970;2023-03-04T07:48:47;11.82;;;6.90;;
67063;SDS011;58476;48.072;11.970;2023-03-04T07:51:13;17.45;;;7.30;;
67063;SDS011;58476;48.072;11.970;2023-03-04T07:53:41;18.80;;;8.95;;
67063;SDS011;58476;48.072;11.970;2023-03-04T07:56:10;17.23;;;8.93;;
67063;SDS011;58476;48.072;11.970;2023-03-04T07:58:37;15.05;;;8.15;;
67063;SDS011;58476;48.072;11.970;2023-03-04T08:01:22;16.30;;;8.00;;
67063;SDS011;58476;48.072;11.970;2023-03-04T08:03:50;19.63;;;8.45;;
67063;SDS011;58476;48.072;11.970;2023-03-04T08:06:16;12.63;;;7.40;;
67063;SDS011;58476;48.072;11.970;2023-03-04T08:08:42;15.02;;;8.15;;
67063;SDS011;58476;48.072;11.970;2023-03-04T08:11:10;14.07;;;8.02;;
67063;SDS011;58476;48.072;11.970;2023-03-04T08:13:37;14.52;;;7.90;;
67063;SDS011;58476;48.072;11.970;2023-03-04T08:16:03;12.93;;;7.78;;
67063;SDS011;58476;48.072;11.970;2023-03-04T08:18:29;14.93;;;7.70;;
67063;SDS011;58476;48.072;11.970;2023-03-04T08:20:55;12.07;;;7.15;;
67063;SDS011;58476;48.072;11.970;2023-03-04T08:23:20;12.88;;;7.20;;
67063;SDS011;58476;48.072;11.970;2023-03-04T08:25:46;13.18;;;7.13;;
67063;SDS011;58476;48.072;11.970;2023-03-04T08:28:12;14.40;;;7.65;;
67063;SDS011;58476;48.072;11.970;2023-03-04T08:30:38;16.42;;;7.72;;
67063;SDS011;58476;48.072;11.970;2023-03-04T08:33:04;14.63;;;7.72;;
67063;SDS011;58476;48.072;11.970;2023-03-04T08:35:29;12.80;;;6.97;;
67063;SDS011;58476;48.072;11.970;2023-03-04T08:37:55;21.20;;;7.38;;
67063;SDS011;58476;48.072;11.970;2023-03-04T08:40:20;18.63;;;7.18;;
67063;SDS011;58476;48.072;11.970;2023-03-04T08:42:45;22.42;;;7.43;;
67063;SDS011;58476;48.072;11.970;2023-03-04T08:45:11;15.13;;;6.82;;
67063;SDS011;58476;48.072;11.970;2023-03-04T08:47:36;13.02;;;7.18;;
67063;SDS011;58476;48.072;11.970;2023-03-04T08:50:02;19.73;;;6.85;;
67063;SDS011;58476;48.072;11.970;2023-03-04T08:52:30;15.25;;;6.88;;
67063;SDS011;58476;48.072;11.970;2023-03-04T08:54:55;12.73;;;6.20;;
67063;SDS011;58476;48.072;11.970;2023-03-04T08:57:21;15.90;;;6.38;;
67063;SDS011;58476;48.072;11.970;2023-03-04T08:59:46;10.45;;;5.93;;
67063;SDS011;58476;48.072;11.970;2023-03-04T09:02:12;15.57;;;6.43;;
67063;SDS011;58476;48.072;11.970;2023-03-04T09:04:37;11.68;;;6.75;;
67063;SDS011;58476;48.072;11.970;2023-03-04T09:07:02;10.18;;;6.05;;
67063;SDS011;58476;48.072;11.970;2023-03-04T09:09:28;15.38;;;6.88;;
67063;SDS011;58476;48.072;11.970;2023-03-04T09:11:53;18.85;;;6.50;;
67063;SDS011;58476;48.072;11.970;2023-03-04T09:14:19;16.70;;;6.43;;
67063;SDS011;58476;48.072;11.970;2023-03-04T09:16:44;12.95;;;6.85;;
67063;SDS011;58476;48.072;11.970;2023-03-04T09:19:09;11.52;;;6.00;;
67063;SDS011;58476;48.072;11.970;2023-03-04T09:21:35;12.95;;;7.07;;
67063;SDS011;58476;48.072;11.970;2023-03-04T09:24:00;13.80;;;6.60;;
67063;SDS011;58476;48.072;11.970;2023-03-04T09:26:26;12.55;;;7.13;;
67063;SDS011;58476;48.072;11.970;2023-03-04T09:28:57;14.85;;;6.25;;
67063;SDS011;58476;48.072;11.970;2023-03-04T09:31:24;12.13;;;6.28;;
67063;SDS011;58476;48.072;11.970;2023-03-04T09:33:50;11.07;;;6.47;;
67063;SDS011;58476;48.072;11.970;2023-03-04T09:36:17;11.15;;;6.25;;
67063;SDS011;58476;48.072;11.970;2023-03-04T09:38:43;14.85;;;6.95;;
67063;SDS011;58476;48.072;11.970;2023-03-04T09:41:19;10.77;;;6.25;;
67063;SDS011;58476;48.072;11.970;2023-03-04T09:43:48;14.23;;;6.35;;
67063;SDS011;58476;48.072;11.970;2023-03-04T09:46:18;11.30;;;6.90;;
67063;SDS011;58476;48.072;11.970;2023-03-04T09:48:56;17.50;;;6.68;;
67063;SDS011;58476;48.072;11.970;2023-03-04T09:51:34;12.27;;;6.15;;
67063;SDS011;58476;48.072;11.970;2023-03-04T09:59:25;10.88;;;6.22;;
67063;SDS011;58476;48.072;11.970;2023-03-04T10:02:01;14.43;;;6.97;;
67063;SDS011;58476;48.072;11.970;2023-03-04T10:04:41;11.75;;;6.65;;
67063;SDS011;58476;48.072;11.970;2023-03-04T10:07:21;13.52;;;6.85;;
67063;SDS011;58476;48.072;11.970;2023-03-04T10:10:04;11.25;;;6.93;;
67063;SDS011;58476;48.072;11.970;2023-03-04T10:12:35;14.82;;;7.70;;
67063;SDS011;58476;48.072;11.970;2023-03-04T10:15:05;17.02;;;8.00;;
67063;SDS011;58476;48.072;11.970;2023-03-04T10:17:42;11.73;;;6.65;;
67063;SDS011;58476;48.072;11.970;2023-03-04T10:20:20;18.80;;;7.57;;
67063;SDS011;58476;48.072;11.970;2023-03-04T10:22:48;15.95;;;6.95;;
67063;SDS011;58476;48.072;11.970;2023-03-04T10:27:42;12.00;;;6.88;;
67063;SDS011;58476;48.072;11.970;2023-03-04T10:30:18;17.33;;;6.65;;
67063;SDS011;58476;48.072;11.970;2023-03-04T10:33:09;14.05;;;7.40;;
67063;SDS011;58476;48.072;11.970;2023-03-04T10:35:39;14.73;;;7.00;;
67063;SDS011;58476;48.072;11.970;2023-03-04T10:38:09;11.75;;;6.53;;
67063;SDS011;58476;48.072;11.970;2023-03-04T10:40:37;12.07;;;6.93;;
67063;SDS011;58476;48.072;11.970;2023-03-04T10:43:04;14.13;;;6.60;;
67063;SDS011;58476;48.072;11.970;2023-03-04T10:45:30;17.55;;;6.93;;
67063;SDS011;58476;48.072;11.970;2023-03-04T10:47:55;12.75;;;6.50;;
67063;SDS011;58476;48.072;11.970;2023-03-04T10:50:22;12.57;;;6.38;;
67063;SDS011;58476;48.072;11.970;2023-03-04T10:52:49;11.73;;;6.70;;
67063;SDS011;58476;48.072;11.970;2023-03-04T10:55:16;12.73;;;6.72;;
67063;SDS011;58476;48.072;11.970;2023-03-04T10:57:53;11.32;;;6.95;;
67063;SDS011;58476;48.072;11.970;2023-03-04T11:00:35;14.63;;;7.50;;
67063;SDS011;58476;48.072;11.970;2023-03-04T11:05:48;23.88;;;7.32;;
67063;SDS011;58476;48.072;11.970;2023-03-04T11:08:20;19.50;;;6.63;;
67063;SDS011;58476;48.072;11.970;2023-03-04T11:10:46;21.10;;;7.30;;
67063;SDS011;58476;48.072;11.970;2023-03-04T11:13:16;18.67;;;6.47;;
67063;SDS011;58476;48.072;11.970;2023-03-04T11:15:53;17.05;;;6.85;;
67063;SDS011;58476;48.072;11.970;2023-03-04T11:21:12;19.65;;;6.82;;
67063;SDS011;58476;48.072;11.970;2023-03-04T11:24:04;14.30;;;6.70;;
67063;SDS011;58476;48.072;11.970;2023-03-04T11:26:37;15.52;;;6.78;;
67063;SDS011;58476;48.072;11.970;2023-03-04T11:37:21;26.50;;;7.50;;
67063;SDS011;58476;48.072;11.970;2023-03-04T11:40:03;15.45;;;7.47;;
67063;SDS011;58476;48.072;11.970;2023-03-04T11:53:19;22.33;;;6.55;;
67063;SDS011;58476;48.072;11.970;2023-03-04T12:06:48;12.48;;;6.70;;
67063;SDS011;58476;48.072;11.970;2023-03-04T12:09:30;13.05;;;7.25;;
67063;SDS011;58476;48.072;11.970;2023-03-04T12:12:22;11.65;;;6.47;;
67063;SDS011;58476;48.072;11.970;2023-03-04T12:17:47;13.77;;;6.60;;
67063;SDS011;58476;48.072;11.970;2023-03-04T12:20:38;12.43;;;6.72;;
67063;SDS011;58476;48.072;11.970;2023-03-04T12:24:01;15.57;;;6.65;;
67063;SDS011;58476;48.072;11.970;2023-03-04T12:29:13;15.93;;;6.85;;
67063;SDS011;58476;48.072;11.970;2023-03-04T12:32:21;15.60;;;6.68;;
67063;SDS011;58476;48.072;11.970;2023-03-04T12:40:20;17.27;;;6.73;;
67063;SDS011;58476;48.072;11.970;2023-03-04T12:50:41;19.77;;;10.00;;
67063;SDS011;58476;48.072;11.970;2023-03-04T12:55:46;18.85;;;8.50;;
67063;SDS011;58476;48.072;11.970;2023-03-04T12:58:15;18.38;;;8.20;;
67063;SDS011;58476;48.072;11.970;2023-03-04T13:03:24;16.73;;;8.13;;
67063;SDS011;58476;48.072;11.970;2023-03-04T13:24:52;19.05;;;8.38;;
67063;SDS011;58476;48.072;11.970;2023-03-04T13:32:57;13.77;;;7.60;;
67063;SDS011;58476;48.072;11.970;2023-03-04T13:51:18;19.75;;;8.35;;
67063;SDS011;58476;48.072;11.970;2023-03-04T13:56:26;22.17;;;7.70;;
67063;SDS011;58476;48.072;11.970;2023-03-04T14:01:32;20.27;;;8.02;;
67063;SDS011;58476;48.072;11.970;2023-03-04T14:03:59;15.55;;;7.38;;
67063;SDS011;58476;48.072;11.970;2023-03-04T14:06:33;19.48;;;7.40;;
67063;SDS011;58476;48.072;11.970;2023-03-04T14:08:59;21.15;;;6.70;;
67063;SDS011;58476;48.072;11.970;2023-03-04T14:11:37;15.90;;;7.25;;
67063;SDS011;58476;48.072;11.970;2023-03-04T14:14:04;13.48;;;6.90;;
67063;SDS011;58476;48.072;11.970;2023-03-04T14:16:35;15.40;;;6.82;;
67063;SDS011;58476;48.072;11.970;2023-03-04T14:19:04;16.17;;;6.57;;
67063;SDS011;58476;48.072;11.970;2023-03-04T14:21:31;20.75;;;7.70;;
67063;SDS011;58476;48.072;11.970;2023-03-04T14:24:04;14.52;;;6.65;;
67063;SDS011;58476;48.072;11.970;2023-03-04T14:26:31;18.35;;;7.22;;
67063;SDS011;58476;48.072;11.970;2023-03-04T14:28:58;18.10;;;7.43;;
67063;SDS011;58476;48.072;11.970;2023-03-04T14:31:24;15.27;;;6.85;;
67063;SDS011;58476;48.072;11.970;2023-03-04T14:33:51;16.98;;;6.82;;
67063;SDS011;58476;48.072;11.970;2023-03-04T14:36:19;15.05;;;7.07;;
67063;SDS011;58476;48.072;11.970;2023-03-04T14:38:54;19.20;;;7.43;;
67063;SDS011;58476;48.072;11.970;2023-03-04T14:41:23;14.75;;;6.70;;
67063;SDS011;58476;48.072;11.970;2023-03-04T14:46:30;17.05;;;7.82;;
67063;SDS011;58476;48.072;11.970;2023-03-04T14:49:00;16.25;;;7.32;;
67063;SDS011;58476;48.072;11.970;2023-03-04T14:51:37;19.27;;;7.78;;
67063;SDS011;58476;48.072;11.970;2023-03-04T14:54:24;18.17;;;7.80;;
67063;SDS011;58476;48.072;11.970;2023-03-04T14:56:52;12.52;;;6.75;;
67063;SDS011;58476;48.072;11.970;2023-03-04T14:59:26;17.80;;;7.45;;
67063;SDS011;58476;48.072;11.970;2023-03-04T15:01:52;13.93;;;6.75;;
67063;SDS011;58476;48.072;11.970;2023-03-04T15:04:18;14.27;;;7.20;;
67063;SDS011;58476;48.072;11.970;2023-03-04T15:06:51;15.65;;;6.43;;
67063;SDS011;58476;48.072;11.970;2023-03-04T15:09:18;12.75;;;6.47;;
67063;SDS011;58476;48.072;11.970;2023-03-04T15:17:04;13.57;;;6.78;;
67063;SDS011;58476;48.072;11.970;2023-03-04T15:19:30;15.25;;;7.10;;
67063;SDS011;58476;48.072;11.970;2023-03-04T15:22:03;16.40;;;6.40;;
67063;SDS011;58476;48.072;11.970;2023-03-04T15:24:30;15.70;;;6.53;;
67063;SDS011;58476;48.072;11.970;2023-03-04T15:26:55;14.20;;;6.68;;
67063;SDS011;58476;48.072;11.970;2023-03-04T15:29:21;17.67;;;6.70;;
67063;SDS011;58476;48.072;11.970;2023-03-04T15:31:47;13.93;;;6.43;;
67063;SDS011;58476;48.072;11.970;2023-03-04T15:34:13;15.13;;;6.75;;
67063;SDS011;58476;48.072;11.970;2023-03-04T15:36:40;13.10;;;6.38;;
67063;SDS011;58476;48.072;11.970;2023-03-04T15:39:09;19.48;;;6.60;;
67063;SDS011;58476;48.072;11.970;2023-03-04T15:41:40;15.23;;;6.15;;
67063;SDS011;58476;48.072;11.970;2023-03-04T15:44:06;18.65;;;5.57;;
67063;SDS011;58476;48.072;11.970;2023-03-04T15:46:31;18.40;;;5.93;;
67063;SDS011;58476;48.072;11.970;2023-03-04T15:55:54;15.93;;;5.32;;
67063;SDS011;58476;48.072;11.970;2023-03-04T15:58:19;14.05;;;6.18;;
67063;SDS011;58476;48.072;11.970;2023-03-04T16:00:45;15.50;;;5.68;;
67063;SDS011;58476;48.072;11.970;2023-03-04T16:03:17;12.18;;;5.78;;
67063;SDS011;58476;48.072;11.970;2023-03-04T16:05:45;9.98;;;5.47;;
67063;SDS011;58476;48.072;11.970;2023-03-04T16:08:13;13.20;;;5.05;;
67063;SDS011;58476;48.072;11.970;2023-03-04T16:10:42;14.20;;;5.30;;
67063;SDS011;58476;48.072;11.970;2023-03-04T16:13:15;17.25;;;5.53;;
67063;SDS011;58476;48.072;11.970;2023-03-04T16:15:42;14.27;;;5.20;;
67063;SDS011;58476;48.072;11.970;2023-03-04T16:18:09;17.98;;;5.75;;
67063;SDS011;58476;48.072;11.970;2023-03-04T16:20:36;12.52;;;6.13;;
67063;SDS011;58476;48.072;11.970;2023-03-04T16:23:02;31.77;;;12.30;;
67063;SDS011;58476;48.072;11.970;2023-03-04T16:25:29;51.40;;;27.60;;
67063;SDS011;58476;48.072;11.970;2023-03-04T16:27:54;69.82;;;36.65;;
67063;SDS011;58476;48.072;11.970;2023-03-04T16:30:22;62.08;;;30.55;;
67063;SDS011;58476;48.072;11.970;2023-03-04T16:32:50;111.80;;;53.83;;
67063;SDS011;58476;48.072;11.970;2023-03-04T16:35:16;50.35;;;19.23;;
67063;SDS011;58476;48.072;11.970;2023-03-04T16:37:42;44.47;;;19.00;;
67063;SDS011;58476;48.072;11.970;2023-03-04T16:40:10;48.63;;;18.98;;
67063;SDS011;58476;48.072;11.970;2023-03-04T16:42:37;50.15;;;20.38;;